Impacts METAR Board
IDs:

KCLE - Cleveland/Hopkins In, OH, US

Updated at: 0100 UTC 28 May 2018
Potential Impact None Slight Moderate High
Time 27/13Z 27/14Z 27/15Z 27/16Z 27/17Z 27/18Z 27/19Z 27/20Z 27/21Z 27/22Z 27/23Z 28/00Z 28/01Z
Temp73 76 79 82 84 84 86 86 86 86 85 84 79
Dewpt68 69 69 69 68 68 68 69 66 64 62 61 62
Altim29.95 29.95 29.94 29.95 29.94 29.93 29.93 29.93 29.92 29.91 29.94 29.94 29.93
VIS10 10 10 10 10 10 10 10 10 10 10 10 10
CIG8 -- -- -- -- 48 250 250 250 -- -- -- --
CoverBKNSCTSCTSCTSCTBKNBKNBKNBKNSCTFEWFEWFEW
FltCatIFRVFRVFRVFRVFRVFRVFRVFRVFRVFRVFRVFRVFR
WX--------------------------
WDir20002600000035036036030140
WSpd5 0 3 0 0 0 4 6 10 5 5 3 4
WGst-- -- -- -- -- -- -- -- -- -- -- -- --
Raw hourly METARs
KCLE 271251Z 20005KT 10SM BKN008 23/20 A2995 RMK AO2 SLP135 T02280200 $
KCLE 271351Z 00000KT 10SM SCT010 SCT250 24/21 A2995 RMK AO2 SLP136 T02440206 $
KCLE 271451Z 26003KT 10SM SCT019 SCT250 26/21 A2994 RMK AO2 SLP133 T02610206 50002 $
KCLE 271551Z 00000KT 10SM SCT030 28/21 A2995 RMK AO2 SLP134 T02780206 $
KCLE 271651Z 00000KT 10SM SCT034 29/20 A2994 RMK AO2 SLP132 T02890200 $
KCLE 271751Z 00000KT 10SM BKN048 29/20 A2993 RMK AO2 SLP128 T02890200 10294 20200 58004 $
KCLE 271851Z VRB04KT 10SM SCT055 BKN250 30/20 A2993 RMK AO2 SLP127 T03000200 $
KCLE 271951Z VRB06KT 10SM FEW048 SCT065 BKN250 30/21 A2993 RMK AO2 SLP129 T03000206 $
KCLE 272051Z 35010KT 10SM FEW048 BKN250 30/19 A2992 RMK AO2 SLP126 T03000189 58002 $
KCLE 272151Z 36005KT 10SM FEW048 SCT250 30/18 A2991 RMK AO2 SLP124 T03000178 $
KCLE 272251Z 36005KT 10SM FEW048 FEW250 29/17 A2994 RMK AO2 SLP131 T02940167 $
KCLE 272351Z 03003KT 10SM FEW045 FEW250 29/16 A2994 RMK AO2 SLP131 T02890161 10306 20289 53005 $
KCLE 280051Z 14004KT 10SM FEW250 26/17 A2993 RMK AO2 SLP127 T02610167 $



Page loaded:  01:38 UTC  |   06:38 PM Pacific  |   07:38 PM Mountain  |   08:38 PM Central  |   09:38 PM Eastern

 

ADVISORIES

FORECASTS

FORECASTS

OBSERVATIONS

USER TOOLS

ABOUT US